sensor_id;sensor_type;location;lat;lon;timestamp;P1;durP1;ratioP1;P2;durP2;ratioP2
23988;SDS011;12202;52.136;5.592;2022-09-09T00:00:48;6.13;;;3.08;;
23988;SDS011;12202;52.136;5.592;2022-09-09T00:03:19;5.07;;;2.95;;
23988;SDS011;12202;52.136;5.592;2022-09-09T00:05:51;4.60;;;2.90;;
23988;SDS011;12202;52.136;5.592;2022-09-09T00:08:22;6.10;;;3.10;;
23988;SDS011;12202;52.136;5.592;2022-09-09T00:10:59;4.25;;;2.72;;
23988;SDS011;12202;52.136;5.592;2022-09-09T00:16:00;7.10;;;2.70;;
23988;SDS011;12202;52.136;5.592;2022-09-09T00:18:45;3.10;;;2.10;;
23988;SDS011;12202;52.136;5.592;2022-09-09T00:21:14;4.45;;;2.75;;
23988;SDS011;12202;52.136;5.592;2022-09-09T00:23:44;3.97;;;2.40;;
23988;SDS011;12202;52.136;5.592;2022-09-09T00:28:45;6.60;;;3.45;;
23988;SDS011;12202;52.136;5.592;2022-09-09T00:31:20;12.23;;;4.30;;
23988;SDS011;12202;52.136;5.592;2022-09-09T00:33:49;7.57;;;3.83;;
23988;SDS011;12202;52.136;5.592;2022-09-09T00:36:20;8.30;;;3.85;;
23988;SDS011;12202;52.136;5.592;2022-09-09T00:38:56;7.18;;;4.20;;
23988;SDS011;12202;52.136;5.592;2022-09-09T00:44:33;5.10;;;4.43;;
23988;SDS011;12202;52.136;5.592;2022-09-09T00:47:23;8.70;;;5.18;;
23988;SDS011;12202;52.136;5.592;2022-09-09T00:50:03;7.30;;;4.90;;
23988;SDS011;12202;52.136;5.592;2022-09-09T00:55:54;9.40;;;6.43;;
23988;SDS011;12202;52.136;5.592;2022-09-09T01:01:15;10.43;;;5.75;;
23988;SDS011;12202;52.136;5.592;2022-09-09T01:06:33;10.65;;;7.22;;
23988;SDS011;12202;52.136;5.592;2022-09-09T01:12:24;10.45;;;7.07;;
23988;SDS011;12202;52.136;5.592;2022-09-09T01:14:53;11.45;;;7.47;;
23988;SDS011;12202;52.136;5.592;2022-09-09T01:17:34;11.98;;;7.45;;
23988;SDS011;12202;52.136;5.592;2022-09-09T01:20:23;12.45;;;6.57;;
23988;SDS011;12202;52.136;5.592;2022-09-09T01:25:30;13.27;;;7.93;;
23988;SDS011;12202;52.136;5.592;2022-09-09T01:31:05;13.73;;;6.93;;
23988;SDS011;12202;52.136;5.592;2022-09-09T01:34:11;11.55;;;6.32;;
23988;SDS011;12202;52.136;5.592;2022-09-09T01:36:43;16.33;;;6.75;;
23988;SDS011;12202;52.136;5.592;2022-09-09T01:39:15;12.35;;;6.25;;
23988;SDS011;12202;52.136;5.592;2022-09-09T01:41:44;11.35;;;6.45;;
23988;SDS011;12202;52.136;5.592;2022-09-09T01:47:21;12.10;;;5.97;;
23988;SDS011;12202;52.136;5.592;2022-09-09T01:49:54;9.73;;;6.88;;
23988;SDS011;12202;52.136;5.592;2022-09-09T01:52:20;11.85;;;6.88;;
23988;SDS011;12202;52.136;5.592;2022-09-09T01:54:46;15.77;;;7.75;;
23988;SDS011;12202;52.136;5.592;2022-09-09T01:57:27;15.27;;;7.65;;
23988;SDS011;12202;52.136;5.592;2022-09-09T02:00:06;14.60;;;6.93;;
23988;SDS011;12202;52.136;5.592;2022-09-09T02:08:45;10.63;;;6.95;;
23988;SDS011;12202;52.136;5.592;2022-09-09T02:11:20;16.50;;;7.80;;
23988;SDS011;12202;52.136;5.592;2022-09-09T02:13:57;12.65;;;7.32;;
23988;SDS011;12202;52.136;5.592;2022-09-09T02:17:01;13.38;;;7.20;;
23988;SDS011;12202;52.136;5.592;2022-09-09T02:19:43;11.38;;;7.80;;
23988;SDS011;12202;52.136;5.592;2022-09-09T02:22:15;13.00;;;8.50;;
23988;SDS011;12202;52.136;5.592;2022-09-09T02:24:47;14.48;;;8.98;;
23988;SDS011;12202;52.136;5.592;2022-09-09T02:27:15;14.65;;;8.80;;
23988;SDS011;12202;52.136;5.592;2022-09-09T02:29:47;14.15;;;8.77;;
23988;SDS011;12202;52.136;5.592;2022-09-09T02:32:23;15.40;;;9.40;;
23988;SDS011;12202;52.136;5.592;2022-09-09T02:34:53;13.80;;;9.43;;
23988;SDS011;12202;52.136;5.592;2022-09-09T02:37:32;15.75;;;9.10;;
23988;SDS011;12202;52.136;5.592;2022-09-09T02:40:15;14.15;;;9.95;;
23988;SDS011;12202;52.136;5.592;2022-09-09T02:43:05;16.63;;;9.85;;
23988;SDS011;12202;52.136;5.592;2022-09-09T02:49:08;16.77;;;9.40;;
23988;SDS011;12202;52.136;5.592;2022-09-09T02:54:09;11.88;;;7.70;;
23988;SDS011;12202;52.136;5.592;2022-09-09T02:56:38;11.98;;;8.02;;
23988;SDS011;12202;52.136;5.592;2022-09-09T02:59:05;12.90;;;7.65;;
23988;SDS011;12202;52.136;5.592;2022-09-09T03:01:32;13.68;;;8.27;;
23988;SDS011;12202;52.136;5.592;2022-09-09T03:03:58;15.02;;;8.68;;
23988;SDS011;12202;52.136;5.592;2022-09-09T03:06:24;13.13;;;8.20;;
23988;SDS011;12202;52.136;5.592;2022-09-09T03:08:50;12.02;;;8.25;;
23988;SDS011;12202;52.136;5.592;2022-09-09T03:11:17;17.00;;;8.52;;
23988;SDS011;12202;52.136;5.592;2022-09-09T03:13:43;17.50;;;8.40;;
23988;SDS011;12202;52.136;5.592;2022-09-09T03:16:09;15.70;;;8.52;;
23988;SDS011;12202;52.136;5.592;2022-09-09T03:18:35;15.98;;;8.80;;
23988;SDS011;12202;52.136;5.592;2022-09-09T03:21:01;18.63;;;8.95;;
23988;SDS011;12202;52.136;5.592;2022-09-09T03:23:27;13.68;;;8.88;;
23988;SDS011;12202;52.136;5.592;2022-09-09T03:25:53;13.45;;;9.40;;
23988;SDS011;12202;52.136;5.592;2022-09-09T03:28:21;12.45;;;8.75;;
23988;SDS011;12202;52.136;5.592;2022-09-09T03:30:48;17.50;;;9.10;;
23988;SDS011;12202;52.136;5.592;2022-09-09T03:33:14;19.92;;;9.13;;
23988;SDS011;12202;52.136;5.592;2022-09-09T03:35:44;20.35;;;9.98;;
23988;SDS011;12202;52.136;5.592;2022-09-09T03:38:12;13.90;;;8.32;;
23988;SDS011;12202;52.136;5.592;2022-09-09T03:40:38;15.52;;;8.85;;
23988;SDS011;12202;52.136;5.592;2022-09-09T03:43:04;16.73;;;8.38;;
23988;SDS011;12202;52.136;5.592;2022-09-09T03:45:30;17.50;;;8.90;;
23988;SDS011;12202;52.136;5.592;2022-09-09T03:47:56;16.63;;;8.85;;
23988;SDS011;12202;52.136;5.592;2022-09-09T03:50:22;14.55;;;9.05;;
23988;SDS011;12202;52.136;5.592;2022-09-09T03:52:48;18.15;;;10.13;;
23988;SDS011;12202;52.136;5.592;2022-09-09T03:55:15;14.25;;;9.20;;
23988;SDS011;12202;52.136;5.592;2022-09-09T03:57:41;19.83;;;8.88;;
23988;SDS011;12202;52.136;5.592;2022-09-09T04:00:07;15.30;;;8.75;;
23988;SDS011;12202;52.136;5.592;2022-09-09T04:02:33;12.15;;;8.85;;
23988;SDS011;12202;52.136;5.592;2022-09-09T04:04:59;15.90;;;10.00;;
23988;SDS011;12202;52.136;5.592;2022-09-09T04:07:26;21.60;;;10.80;;
23988;SDS011;12202;52.136;5.592;2022-09-09T04:09:53;16.23;;;9.43;;
23988;SDS011;12202;52.136;5.592;2022-09-09T04:12:19;23.05;;;10.35;;
23988;SDS011;12202;52.136;5.592;2022-09-09T04:14:47;14.30;;;9.27;;
23988;SDS011;12202;52.136;5.592;2022-09-09T04:17:13;25.70;;;10.00;;
23988;SDS011;12202;52.136;5.592;2022-09-09T04:19:39;15.70;;;9.05;;
23988;SDS011;12202;52.136;5.592;2022-09-09T04:22:05;15.63;;;9.38;;
23988;SDS011;12202;52.136;5.592;2022-09-09T04:24:31;16.17;;;9.55;;
23988;SDS011;12202;52.136;5.592;2022-09-09T04:26:57;15.57;;;9.23;;
23988;SDS011;12202;52.136;5.592;2022-09-09T04:29:23;19.95;;;9.38;;
23988;SDS011;12202;52.136;5.592;2022-09-09T04:31:49;16.05;;;9.15;;
23988;SDS011;12202;52.136;5.592;2022-09-09T04:34:15;16.02;;;10.25;;
23988;SDS011;12202;52.136;5.592;2022-09-09T04:36:41;21.23;;;9.95;;
23988;SDS011;12202;52.136;5.592;2022-09-09T04:39:07;18.63;;;9.55;;
23988;SDS011;12202;52.136;5.592;2022-09-09T04:41:33;17.58;;;9.60;;
23988;SDS011;12202;52.136;5.592;2022-09-09T04:43:59;15.93;;;9.60;;
23988;SDS011;12202;52.136;5.592;2022-09-09T04:46:25;15.48;;;9.88;;
23988;SDS011;12202;52.136;5.592;2022-09-09T04:48:51;16.52;;;8.75;;
23988;SDS011;12202;52.136;5.592;2022-09-09T04:51:17;20.00;;;10.18;;
23988;SDS011;12202;52.136;5.592;2022-09-09T04:53:44;13.75;;;9.57;;
23988;SDS011;12202;52.136;5.592;2022-09-09T04:56:12;17.30;;;9.52;;
23988;SDS011;12202;52.136;5.592;2022-09-09T04:58:39;15.90;;;9.77;;
23988;SDS011;12202;52.136;5.592;2022-09-09T05:01:11;14.32;;;8.45;;
23988;SDS011;12202;52.136;5.592;2022-09-09T05:03:38;18.95;;;8.48;;
23988;SDS011;12202;52.136;5.592;2022-09-09T05:06:04;21.02;;;9.05;;
23988;SDS011;12202;52.136;5.592;2022-09-09T05:08:31;13.98;;;8.20;;
23988;SDS011;12202;52.136;5.592;2022-09-09T05:10:57;13.65;;;8.45;;
23988;SDS011;12202;52.136;5.592;2022-09-09T05:13:24;12.65;;;8.18;;
23988;SDS011;12202;52.136;5.592;2022-09-09T05:15:51;21.15;;;8.68;;
23988;SDS011;12202;52.136;5.592;2022-09-09T05:18:18;13.90;;;9.02;;
23988;SDS011;12202;52.136;5.592;2022-09-09T05:20:44;17.23;;;9.57;;
23988;SDS011;12202;52.136;5.592;2022-09-09T05:23:10;18.85;;;8.95;;
23988;SDS011;12202;52.136;5.592;2022-09-09T05:25:39;15.80;;;8.23;;
23988;SDS011;12202;52.136;5.592;2022-09-09T05:28:05;18.58;;;7.95;;
23988;SDS011;12202;52.136;5.592;2022-09-09T05:30:32;19.38;;;8.63;;
23988;SDS011;12202;52.136;5.592;2022-09-09T05:32:58;23.77;;;8.60;;
23988;SDS011;12202;52.136;5.592;2022-09-09T05:35:24;16.67;;;8.55;;
23988;SDS011;12202;52.136;5.592;2022-09-09T05:37:50;14.02;;;8.32;;
23988;SDS011;12202;52.136;5.592;2022-09-09T05:40:16;15.45;;;8.30;;
23988;SDS011;12202;52.136;5.592;2022-09-09T05:42:43;14.07;;;7.70;;
23988;SDS011;12202;52.136;5.592;2022-09-09T05:45:09;20.35;;;7.70;;
23988;SDS011;12202;52.136;5.592;2022-09-09T05:47:36;17.92;;;7.88;;
23988;SDS011;12202;52.136;5.592;2022-09-09T05:50:02;14.65;;;7.38;;
23988;SDS011;12202;52.136;5.592;2022-09-09T05:52:29;14.73;;;7.40;;
23988;SDS011;12202;52.136;5.592;2022-09-09T05:54:55;14.00;;;7.43;;
23988;SDS011;12202;52.136;5.592;2022-09-09T05:57:22;10.38;;;5.38;;
23988;SDS011;12202;52.136;5.592;2022-09-09T05:59:48;16.95;;;6.78;;
23988;SDS011;12202;52.136;5.592;2022-09-09T06:02:14;12.25;;;5.63;;
23988;SDS011;12202;52.136;5.592;2022-09-09T06:04:41;17.15;;;7.20;;
23988;SDS011;12202;52.136;5.592;2022-09-09T06:07:07;14.63;;;6.28;;
23988;SDS011;12202;52.136;5.592;2022-09-09T06:09:32;13.93;;;6.85;;
23988;SDS011;12202;52.136;5.592;2022-09-09T06:11:58;16.80;;;6.32;;
23988;SDS011;12202;52.136;5.592;2022-09-09T06:14:24;20.25;;;6.15;;
23988;SDS011;12202;52.136;5.592;2022-09-09T06:16:51;12.60;;;6.32;;
23988;SDS011;12202;52.136;5.592;2022-09-09T06:19:17;16.70;;;6.05;;
23988;SDS011;12202;52.136;5.592;2022-09-09T06:21:45;18.40;;;5.97;;
23988;SDS011;12202;52.136;5.592;2022-09-09T06:24:12;12.30;;;6.57;;
23988;SDS011;12202;52.136;5.592;2022-09-09T06:26:42;14.82;;;6.63;;
23988;SDS011;12202;52.136;5.592;2022-09-09T06:29:08;17.55;;;5.70;;
23988;SDS011;12202;52.136;5.592;2022-09-09T06:31:35;18.42;;;6.85;;
23988;SDS011;12202;52.136;5.592;2022-09-09T06:34:02;12.00;;;5.88;;
23988;SDS011;12202;52.136;5.592;2022-09-09T06:36:33;20.67;;;7.22;;
23988;SDS011;12202;52.136;5.592;2022-09-09T06:38:59;17.83;;;6.88;;
23988;SDS011;12202;52.136;5.592;2022-09-09T06:41:27;18.65;;;6.78;;
23988;SDS011;12202;52.136;5.592;2022-09-09T06:43:53;18.67;;;6.55;;
23988;SDS011;12202;52.136;5.592;2022-09-09T06:46:24;20.83;;;6.93;;
23988;SDS011;12202;52.136;5.592;2022-09-09T06:48:52;17.88;;;5.88;;
23988;SDS011;12202;52.136;5.592;2022-09-09T06:51:21;12.52;;;5.53;;
23988;SDS011;12202;52.136;5.592;2022-09-09T06:53:49;17.55;;;6.45;;
23988;SDS011;12202;52.136;5.592;2022-09-09T06:56:22;20.52;;;5.80;;
23988;SDS011;12202;52.136;5.592;2022-09-09T06:58:49;13.73;;;5.90;;
23988;SDS011;12202;52.136;5.592;2022-09-09T07:01:17;22.00;;;7.45;;
23988;SDS011;12202;52.136;5.592;2022-09-09T07:03:48;25.30;;;7.45;;
23988;SDS011;12202;52.136;5.592;2022-09-09T07:06:16;19.48;;;6.57;;
23988;SDS011;12202;52.136;5.592;2022-09-09T07:08:42;21.17;;;6.25;;
23988;SDS011;12202;52.136;5.592;2022-09-09T07:11:09;18.65;;;5.93;;
23988;SDS011;12202;52.136;5.592;2022-09-09T07:13:36;17.63;;;7.57;;
23988;SDS011;12202;52.136;5.592;2022-09-09T07:16:06;22.73;;;6.70;;
23988;SDS011;12202;52.136;5.592;2022-09-09T07:18:32;19.23;;;6.55;;
23988;SDS011;12202;52.136;5.592;2022-09-09T07:20:59;14.63;;;6.00;;
23988;SDS011;12202;52.136;5.592;2022-09-09T07:23:26;14.57;;;5.50;;
23988;SDS011;12202;52.136;5.592;2022-09-09T07:25:52;17.98;;;6.20;;
23988;SDS011;12202;52.136;5.592;2022-09-09T07:28:18;22.00;;;5.85;;
23988;SDS011;12202;52.136;5.592;2022-09-09T07:30:52;21.48;;;6.60;;
23988;SDS011;12202;52.136;5.592;2022-09-09T07:33:18;17.45;;;5.85;;
23988;SDS011;12202;52.136;5.592;2022-09-09T07:35:45;17.80;;;5.78;;
23988;SDS011;12202;52.136;5.592;2022-09-09T07:38:11;21.60;;;5.65;;
23988;SDS011;12202;52.136;5.592;2022-09-09T07:40:37;17.02;;;5.70;;
23988;SDS011;12202;52.136;5.592;2022-09-09T07:43:03;16.75;;;5.70;;
23988;SDS011;12202;52.136;5.592;2022-09-09T07:45:29;22.23;;;6.32;;
23988;SDS011;12202;52.136;5.592;2022-09-09T07:47:57;14.15;;;5.15;;
23988;SDS011;12202;52.136;5.592;2022-09-09T07:50:23;13.80;;;4.78;;
23988;SDS011;12202;52.136;5.592;2022-09-09T07:52:53;16.95;;;5.68;;
23988;SDS011;12202;52.136;5.592;2022-09-09T07:55:19;18.77;;;4.88;;
23988;SDS011;12202;52.136;5.592;2022-09-09T07:57:45;20.38;;;5.65;;
23988;SDS011;12202;52.136;5.592;2022-09-09T08:00:11;14.25;;;4.75;;
23988;SDS011;12202;52.136;5.592;2022-09-09T08:02:39;13.23;;;4.93;;
23988;SDS011;12202;52.136;5.592;2022-09-09T08:05:05;18.73;;;5.85;;
23988;SDS011;12202;52.136;5.592;2022-09-09T08:07:31;14.27;;;5.82;;
23988;SDS011;12202;52.136;5.592;2022-09-09T08:09:57;13.40;;;4.93;;
23988;SDS011;12202;52.136;5.592;2022-09-09T08:12:23;15.65;;;5.35;;
23988;SDS011;12202;52.136;5.592;2022-09-09T08:14:49;17.75;;;5.18;;
23988;SDS011;12202;52.136;5.592;2022-09-09T08:17:16;20.15;;;4.75;;
23988;SDS011;12202;52.136;5.592;2022-09-09T08:19:42;13.13;;;4.32;;
23988;SDS011;12202;52.136;5.592;2022-09-09T08:22:09;15.35;;;4.32;;
23988;SDS011;12202;52.136;5.592;2022-09-09T08:24:35;16.45;;;4.18;;
23988;SDS011;12202;52.136;5.592;2022-09-09T08:27:01;15.40;;;3.80;;
23988;SDS011;12202;52.136;5.592;2022-09-09T08:29:27;14.70;;;3.78;;
23988;SDS011;12202;52.136;5.592;2022-09-09T08:31:56;15.23;;;4.07;;
23988;SDS011;12202;52.136;5.592;2022-09-09T08:34:23;19.67;;;4.10;;
23988;SDS011;12202;52.136;5.592;2022-09-09T08:36:50;13.52;;;4.53;;
23988;SDS011;12202;52.136;5.592;2022-09-09T08:39:17;17.55;;;4.63;;
23988;SDS011;12202;52.136;5.592;2022-09-09T08:44:11;13.05;;;4.40;;
23988;SDS011;12202;52.136;5.592;2022-09-09T08:51:38;12.73;;;4.30;;
23988;SDS011;12202;52.136;5.592;2022-09-09T08:54:04;13.18;;;3.72;;
23988;SDS011;12202;52.136;5.592;2022-09-09T08:56:31;14.90;;;3.53;;
23988;SDS011;12202;52.136;5.592;2022-09-09T08:58:59;12.40;;;3.88;;
23988;SDS011;12202;52.136;5.592;2022-09-09T09:04:01;16.23;;;3.67;;
23988;SDS011;12202;52.136;5.592;2022-09-09T09:09:02;21.25;;;4.82;;
23988;SDS011;12202;52.136;5.592;2022-09-09T09:11:35;10.85;;;3.90;;
23988;SDS011;12202;52.136;5.592;2022-09-09T09:14:44;16.27;;;4.10;;
23988;SDS011;12202;52.136;5.592;2022-09-09T09:17:04;19.45;;;3.85;;
23988;SDS011;12202;52.136;5.592;2022-09-09T09:19:34;17.17;;;4.28;;
23988;SDS011;12202;52.136;5.592;2022-09-09T09:26:57;19.55;;;4.68;;
23988;SDS011;12202;52.136;5.592;2022-09-09T09:29:23;17.23;;;5.13;;
23988;SDS011;12202;52.136;5.592;2022-09-09T09:31:51;14.02;;;3.63;;
23988;SDS011;12202;52.136;5.592;2022-09-09T09:34:19;14.45;;;3.70;;
23988;SDS011;12202;52.136;5.592;2022-09-09T09:36:46;16.95;;;3.92;;
23988;SDS011;12202;52.136;5.592;2022-09-09T09:39:24;14.75;;;3.65;;
23988;SDS011;12202;52.136;5.592;2022-09-09T09:41:50;14.60;;;3.67;;
23988;SDS011;12202;52.136;5.592;2022-09-09T09:46:46;22.17;;;4.07;;
23988;SDS011;12202;52.136;5.592;2022-09-09T09:49:12;13.32;;;3.65;;
23988;SDS011;12202;52.136;5.592;2022-09-09T09:51:38;8.35;;;3.55;;
23988;SDS011;12202;52.136;5.592;2022-09-09T09:56:34;14.38;;;3.60;;
23988;SDS011;12202;52.136;5.592;2022-09-09T09:59:00;17.15;;;3.83;;
23988;SDS011;12202;52.136;5.592;2022-09-09T10:04:03;10.57;;;3.85;;
23988;SDS011;12202;52.136;5.592;2022-09-09T10:06:38;16.80;;;4.43;;
23988;SDS011;12202;52.136;5.592;2022-09-09T10:17:07;16.83;;;3.97;;
23988;SDS011;12202;52.136;5.592;2022-09-09T10:19:35;11.50;;;4.07;;
23988;SDS011;12202;52.136;5.592;2022-09-09T10:45:55;16.42;;;3.75;;
23988;SDS011;12202;52.136;5.592;2022-09-09T10:56:09;9.27;;;3.65;;
23988;SDS011;12202;52.136;5.592;2022-09-09T10:58:44;15.93;;;3.58;;
23988;SDS011;12202;52.136;5.592;2022-09-09T11:01:14;9.23;;;4.03;;
23988;SDS011;12202;52.136;5.592;2022-09-09T11:03:41;9.93;;;3.92;;
23988;SDS011;12202;52.136;5.592;2022-09-09T11:06:19;12.60;;;5.00;;
23988;SDS011;12202;52.136;5.592;2022-09-09T11:08:45;14.65;;;5.35;;
23988;SDS011;12202;52.136;5.592;2022-09-09T11:11:19;16.17;;;5.40;;
23988;SDS011;12202;52.136;5.592;2022-09-09T11:14:01;19.00;;;6.20;;
23988;SDS011;12202;52.136;5.592;2022-09-09T11:19:11;21.08;;;6.38;;
23988;SDS011;12202;52.136;5.592;2022-09-09T11:21:41;17.02;;;7.00;;
23988;SDS011;12202;52.136;5.592;2022-09-09T11:24:10;15.02;;;6.40;;
23988;SDS011;12202;52.136;5.592;2022-09-09T11:26:41;18.02;;;6.60;;
23988;SDS011;12202;52.136;5.592;2022-09-09T11:29:17;23.08;;;6.88;;
23988;SDS011;12202;52.136;5.592;2022-09-09T11:39:48;15.27;;;5.93;;
23988;SDS011;12202;52.136;5.592;2022-09-09T11:42:18;21.65;;;6.35;;
23988;SDS011;12202;52.136;5.592;2022-09-09T11:44:44;17.38;;;5.72;;
23988;SDS011;12202;52.136;5.592;2022-09-09T11:49:46;17.48;;;4.82;;
23988;SDS011;12202;52.136;5.592;2022-09-09T11:52:23;16.33;;;4.85;;
23988;SDS011;12202;52.136;5.592;2022-09-09T11:54:51;12.02;;;4.40;;
23988;SDS011;12202;52.136;5.592;2022-09-09T11:59:51;13.88;;;4.63;;
23988;SDS011;12202;52.136;5.592;2022-09-09T12:04:46;13.10;;;4.80;;
23988;SDS011;12202;52.136;5.592;2022-09-09T12:10:03;9.57;;;4.18;;
23988;SDS011;12202;52.136;5.592;2022-09-09T12:12:37;15.93;;;4.85;;
23988;SDS011;12202;52.136;5.592;2022-09-09T12:17:37;14.05;;;4.70;;
23988;SDS011;12202;52.136;5.592;2022-09-09T12:20:14;9.13;;;3.72;;
23988;SDS011;12202;52.136;5.592;2022-09-09T12:25:20;10.48;;;4.07;;
23988;SDS011;12202;52.136;5.592;2022-09-09T12:27:54;12.18;;;3.65;;
23988;SDS011;12202;52.136;5.592;2022-09-09T12:30:28;10.18;;;4.00;;
23988;SDS011;12202;52.136;5.592;2022-09-09T12:33:33;13.35;;;4.50;;
23988;SDS011;12202;52.136;5.592;2022-09-09T12:35:55;17.00;;;4.82;;
23988;SDS011;12202;52.136;5.592;2022-09-09T12:38:26;11.68;;;5.43;;
23988;SDS011;12202;52.136;5.592;2022-09-09T12:40:56;18.38;;;5.78;;
23988;SDS011;12202;52.136;5.592;2022-09-09T12:43:23;19.98;;;5.57;;
23988;SDS011;12202;52.136;5.592;2022-09-09T12:45:49;15.60;;;4.85;;
23988;SDS011;12202;52.136;5.592;2022-09-09T12:48:21;16.38;;;5.13;;
23988;SDS011;12202;52.136;5.592;2022-09-09T12:50:50;9.80;;;4.90;;
23988;SDS011;12202;52.136;5.592;2022-09-09T12:53:21;11.27;;;4.75;;
23988;SDS011;12202;52.136;5.592;2022-09-09T12:55:49;9.35;;;5.35;;
23988;SDS011;12202;52.136;5.592;2022-09-09T12:58:17;15.63;;;5.65;;
23988;SDS011;12202;52.136;5.592;2022-09-09T13:00:50;16.83;;;5.40;;
23988;SDS011;12202;52.136;5.592;2022-09-09T13:03:18;7.63;;;4.25;;
23988;SDS011;12202;52.136;5.592;2022-09-09T13:05:45;16.63;;;4.95;;
23988;SDS011;12202;52.136;5.592;2022-09-09T13:08:12;11.55;;;5.32;;
23988;SDS011;12202;52.136;5.592;2022-09-09T13:10:39;13.77;;;4.72;;
23988;SDS011;12202;52.136;5.592;2022-09-09T13:13:13;13.55;;;4.57;;
23988;SDS011;12202;52.136;5.592;2022-09-09T13:15:39;10.90;;;4.65;;
23988;SDS011;12202;52.136;5.592;2022-09-09T13:18:06;11.30;;;4.47;;
23988;SDS011;12202;52.136;5.592;2022-09-09T13:20:36;10.82;;;4.32;;
23988;SDS011;12202;52.136;5.592;2022-09-09T13:23:03;9.82;;;4.75;;
23988;SDS011;12202;52.136;5.592;2022-09-09T13:25:29;13.07;;;4.53;;
23988;SDS011;12202;52.136;5.592;2022-09-09T13:27:59;12.88;;;4.65;;
23988;SDS011;12202;52.136;5.592;2022-09-09T13:33:04;12.43;;;4.20;;
23988;SDS011;12202;52.136;5.592;2022-09-09T13:35:30;11.75;;;4.85;;
23988;SDS011;12202;52.136;5.592;2022-09-09T13:37:57;11.52;;;3.90;;
23988;SDS011;12202;52.136;5.592;2022-09-09T13:40:24;10.20;;;4.80;;
23988;SDS011;12202;52.136;5.592;2022-09-09T13:42:55;10.80;;;4.68;;
23988;SDS011;12202;52.136;5.592;2022-09-09T13:45:22;11.38;;;4.60;;
23988;SDS011;12202;52.136;5.592;2022-09-09T13:47:49;15.95;;;5.18;;
23988;SDS011;12202;52.136;5.592;2022-09-09T13:50:21;6.28;;;3.88;;
23988;SDS011;12202;52.136;5.592;2022-09-09T13:52:49;11.30;;;4.85;;
23988;SDS011;12202;52.136;5.592;2022-09-09T13:55:16;10.85;;;4.15;;
23988;SDS011;12202;52.136;5.592;2022-09-09T14:00:17;11.13;;;4.80;;
23988;SDS011;12202;52.136;5.592;2022-09-09T14:02:43;11.00;;;4.55;;
23988;SDS011;12202;52.136;5.592;2022-09-09T14:05:09;10.63;;;4.22;;
23988;SDS011;12202;52.136;5.592;2022-09-09T14:07:36;21.38;;;5.05;;
23988;SDS011;12202;52.136;5.592;2022-09-09T14:10:03;9.68;;;4.32;;
23988;SDS011;12202;52.136;5.592;2022-09-09T14:12:29;9.27;;;3.92;;
23988;SDS011;12202;52.136;5.592;2022-09-09T14:14:55;12.75;;;4.75;;
23988;SDS011;12202;52.136;5.592;2022-09-09T14:17:21;16.67;;;5.28;;
23988;SDS011;12202;52.136;5.592;2022-09-09T14:19:47;12.38;;;4.43;;
23988;SDS011;12202;52.136;5.592;2022-09-09T14:22:14;12.68;;;4.60;;
23988;SDS011;12202;52.136;5.592;2022-09-09T14:24:40;8.73;;;4.00;;
23988;SDS011;12202;52.136;5.592;2022-09-09T14:27:06;13.85;;;4.63;;
23988;SDS011;12202;52.136;5.592;2022-09-09T14:29:32;9.38;;;3.88;;
23988;SDS011;12202;52.136;5.592;2022-09-09T14:31:58;9.52;;;3.65;;
23988;SDS011;12202;52.136;5.592;2022-09-09T14:34:28;12.60;;;4.18;;
23988;SDS011;12202;52.136;5.592;2022-09-09T14:36:54;8.07;;;3.72;;
23988;SDS011;12202;52.136;5.592;2022-09-09T14:39:20;9.38;;;3.75;;
23988;SDS011;12202;52.136;5.592;2022-09-09T14:41:46;7.25;;;3.53;;
23988;SDS011;12202;52.136;5.592;2022-09-09T14:44:12;12.23;;;3.90;;
23988;SDS011;12202;52.136;5.592;2022-09-09T14:46:40;8.13;;;2.92;;
23988;SDS011;12202;52.136;5.592;2022-09-09T14:49:07;9.27;;;3.75;;
23988;SDS011;12202;52.136;5.592;2022-09-09T14:51:33;11.98;;;3.95;;
23988;SDS011;12202;52.136;5.592;2022-09-09T14:53:59;8.43;;;3.85;;
23988;SDS011;12202;52.136;5.592;2022-09-09T14:56:27;9.63;;;3.78;;
23988;SDS011;12202;52.136;5.592;2022-09-09T14:58:54;11.77;;;4.10;;
23988;SDS011;12202;52.136;5.592;2022-09-09T15:01:21;7.93;;;4.07;;
23988;SDS011;12202;52.136;5.592;2022-09-09T15:03:51;9.82;;;3.55;;
23988;SDS011;12202;52.136;5.592;2022-09-09T15:06:17;7.38;;;3.75;;
23988;SDS011;12202;52.136;5.592;2022-09-09T15:08:46;10.80;;;4.13;;
23988;SDS011;12202;52.136;5.592;2022-09-09T15:11:13;11.32;;;4.88;;
23988;SDS011;12202;52.136;5.592;2022-09-09T15:13:39;9.30;;;4.70;;
23988;SDS011;12202;52.136;5.592;2022-09-09T15:16:06;6.75;;;4.40;;
23988;SDS011;12202;52.136;5.592;2022-09-09T15:18:32;17.13;;;6.00;;
23988;SDS011;12202;52.136;5.592;2022-09-09T15:21:02;7.60;;;4.05;;
23988;SDS011;12202;52.136;5.592;2022-09-09T15:23:32;9.73;;;4.45;;
23988;SDS011;12202;52.136;5.592;2022-09-09T15:25:59;16.15;;;4.15;;
23988;SDS011;12202;52.136;5.592;2022-09-09T15:28:25;6.38;;;3.90;;
23988;SDS011;12202;52.136;5.592;2022-09-09T15:30:51;9.70;;;4.20;;
23988;SDS011;12202;52.136;5.592;2022-09-09T15:33:18;11.90;;;4.13;;
23988;SDS011;12202;52.136;5.592;2022-09-09T15:35:45;10.65;;;3.95;;
23988;SDS011;12202;52.136;5.592;2022-09-09T15:38:11;5.38;;;3.80;;
23988;SDS011;12202;52.136;5.592;2022-09-09T15:40:41;7.93;;;3.25;;
23988;SDS011;12202;52.136;5.592;2022-09-09T15:43:07;6.50;;;3.25;;
23988;SDS011;12202;52.136;5.592;2022-09-09T15:45:34;8.25;;;2.75;;
23988;SDS011;12202;52.136;5.592;2022-09-09T15:48:00;3.70;;;1.88;;
23988;SDS011;12202;52.136;5.592;2022-09-09T15:50:26;3.15;;;1.90;;
23988;SDS011;12202;52.136;5.592;2022-09-09T15:52:57;3.85;;;1.83;;
23988;SDS011;12202;52.136;5.592;2022-09-09T15:55:23;1.55;;;1.40;;
23988;SDS011;12202;52.136;5.592;2022-09-09T15:57:49;4.88;;;1.73;;
23988;SDS011;12202;52.136;5.592;2022-09-09T16:00:17;3.85;;;2.22;;
23988;SDS011;12202;52.136;5.592;2022-09-09T16:02:43;5.40;;;2.83;;
23988;SDS011;12202;52.136;5.592;2022-09-09T16:05:09;5.40;;;2.65;;
23988;SDS011;12202;52.136;5.592;2022-09-09T16:07:35;4.07;;;2.30;;
23988;SDS011;12202;52.136;5.592;2022-09-09T16:10:01;9.93;;;2.78;;
23988;SDS011;12202;52.136;5.592;2022-09-09T16:12:27;8.68;;;3.05;;
23988;SDS011;12202;52.136;5.592;2022-09-09T16:14:53;5.82;;;2.45;;
23988;SDS011;12202;52.136;5.592;2022-09-09T16:17:19;5.05;;;2.50;;
23988;SDS011;12202;52.136;5.592;2022-09-09T16:19:46;3.97;;;2.70;;
23988;SDS011;12202;52.136;5.592;2022-09-09T16:22:12;4.15;;;2.45;;
23988;SDS011;12202;52.136;5.592;2022-09-09T16:24:40;4.80;;;2.10;;
23988;SDS011;12202;52.136;5.592;2022-09-09T16:27:06;4.75;;;3.00;;
23988;SDS011;12202;52.136;5.592;2022-09-09T16:29:32;5.75;;;3.10;;
23988;SDS011;12202;52.136;5.592;2022-09-09T16:31:58;7.78;;;2.10;;
23988;SDS011;12202;52.136;5.592;2022-09-09T16:34:25;5.70;;;2.35;;
23988;SDS011;12202;52.136;5.592;2022-09-09T16:36:51;4.90;;;2.30;;
23988;SDS011;12202;52.136;5.592;2022-09-09T16:39:18;3.42;;;2.33;;
23988;SDS011;12202;52.136;5.592;2022-09-09T16:41:45;5.88;;;2.63;;
23988;SDS011;12202;52.136;5.592;2022-09-09T16:44:16;6.88;;;2.70;;
23988;SDS011;12202;52.136;5.592;2022-09-09T16:46:46;8.27;;;2.90;;
23988;SDS011;12202;52.136;5.592;2022-09-09T16:49:13;5.10;;;2.88;;
23988;SDS011;12202;52.136;5.592;2022-09-09T16:51:44;9.85;;;3.33;;
23988;SDS011;12202;52.136;5.592;2022-09-09T16:54:11;18.65;;;3.50;;
23988;SDS011;12202;52.136;5.592;2022-09-09T16:56:39;6.70;;;3.33;;
23988;SDS011;12202;52.136;5.592;2022-09-09T16:59:10;6.18;;;2.75;;
23988;SDS011;12202;52.136;5.592;2022-09-09T17:01:38;7.95;;;3.25;;
23988;SDS011;12202;52.136;5.592;2022-09-09T17:04:06;10.80;;;3.10;;